Time;durP1;ratioP1;P1;durP2;ratioP2;P2;SDS_P1;SDS_P2;PMS_P1;PMS_P2;Temp;Humidity;BMP_temperature;BMP_pressure;BME280_temperature;BME280_humidity;BME280_pressure;Samples;Min_cycle;Max_cycle;Signal;HPM_P1;HPM_P2
2022/05/14 00:00:39;;;;;;;3.50;2.53;;;14.60;99.90;;;;;;5076419;28;20930;-56
2022/05/14 00:03:08;;;;;;;2.73;2.10;;;14.60;99.90;;;;;;5076349;28;20487;-57
2022/05/14 00:05:35;;;;;;;3.13;2.00;;;14.60;99.90;;;;;;5076340;28;20491;-57
2022/05/14 00:08:03;;;;;;;3.20;2.40;;;14.60;99.90;;;;;;5076277;28;20457;-57
2022/05/14 00:10:32;;;;;;;2.10;1.90;;;14.50;99.90;;;;;;5075986;28;20815;-57
2022/05/14 00:13:04;;;;;;;3.37;2.60;;;14.50;99.90;;;;;;5075435;28;20803;-56
2022/05/14 00:15:32;;;;;;;2.50;2.30;;;14.50;99.90;;;;;;5075933;28;20930;-56
2022/05/14 00:18:00;;;;;;;3.57;2.63;;;14.50;99.90;;;;;;5076054;28;20467;-55
2022/05/14 00:20:29;;;;;;;3.17;2.83;;;14.40;99.90;;;;;;5076041;28;20531;-56
2022/05/14 00:22:56;;;;;;;3.67;2.50;;;14.40;99.90;;;;;;5075882;28;20484;-56
2022/05/14 00:25:23;;;;;;;8.20;2.03;;;14.40;99.90;;;;;;5075772;28;20449;-56
2022/05/14 00:27:50;;;;;;;3.63;2.60;;;14.40;99.90;;;;;;5075739;28;20564;-56
2022/05/14 00:30:19;;;;;;;2.93;2.10;;;14.40;99.90;;;;;;5075580;28;20444;-57
2022/05/14 00:32:47;;;;;;;2.53;2.30;;;14.40;99.90;;;;;;5075837;28;20452;-56
2022/05/14 00:35:14;;;;;;;3.40;2.20;;;14.30;99.90;;;;;;5075513;28;20484;-56
2022/05/14 00:37:44;;;;;;;11.00;3.00;;;14.30;99.90;;;;;;5075683;28;20480;-56
2022/05/14 00:40:14;;;;;;;5.00;3.47;;;14.20;99.90;;;;;;5075525;28;20480;-56
2022/05/14 00:42:42;;;;;;;2.70;2.50;;;14.10;99.90;;;;;;5075641;28;20479;-57
2022/05/14 00:45:12;;;;;;;2.87;2.43;;;14.10;99.90;;;;;;5076140;28;20441;-57
2022/05/14 00:47:40;;;;;;;2.30;2.10;;;14.00;99.90;;;;;;5075541;28;20498;-57
2022/05/14 00:50:10;;;;;;;3.20;2.20;;;14.00;99.90;;;;;;5075324;28;20535;-55
2022/05/14 00:52:37;;;;;;;2.20;1.73;;;14.10;99.90;;;;;;5075098;28;20476;-57
2022/05/14 00:55:07;;;;;;;3.20;1.97;;;14.10;99.90;;;;;;5075200;28;20449;-56
2022/05/14 00:57:37;;;;;;;4.87;2.60;;;14.00;99.90;;;;;;5075438;28;20463;-57
2022/05/14 01:00:08;;;;;;;9.33;4.03;;;13.90;99.90;;;;;;5074956;28;20510;-56
2022/05/14 01:02:35;;;;;;;3.20;2.90;;;13.70;99.90;;;;;;5074992;28;20484;-56
2022/05/14 01:05:03;;;;;;;4.93;2.70;;;13.80;99.90;;;;;;5075214;28;20938;-56
2022/05/14 01:07:31;;;;;;;5.03;2.80;;;13.90;99.90;;;;;;5074882;28;20493;-56
2022/05/14 01:10:03;;;;;;;4.33;2.10;;;13.90;99.90;;;;;;5075057;28;20552;-57
2022/05/14 01:12:33;;;;;;;2.77;2.10;;;14.00;99.90;;;;;;5075146;28;20829;-57
2022/05/14 01:15:17;;;;;;;4.87;2.63;;;13.90;99.90;;;;;;5075050;28;20511;-57
2022/05/14 01:17:45;;;;;;;2.30;1.90;;;13.90;99.90;;;;;;5074943;28;20425;-57
2022/05/14 01:20:14;;;;;;;3.33;2.20;;;13.90;99.90;;;;;;5074912;28;20448;-56
2022/05/14 01:22:53;;;;;;;3.83;2.27;;;13.70;99.90;;;;;;5074450;28;20484;-57
2022/05/14 01:28:14;;;;;;;2.87;2.63;;;13.60;99.90;;;;;;5074822;28;20440;-56
2022/05/14 01:30:47;;;;;;;6.33;3.03;;;13.40;99.90;;;;;;5074410;28;20478;-56
2022/05/14 01:33:14;;;;;;;2.37;2.17;;;13.40;99.90;;;;;;5074733;28;20932;-57
2022/05/14 01:35:42;;;;;;;6.17;2.90;;;13.50;99.90;;;;;;5075116;28;20452;-57
2022/05/14 01:38:10;;;;;;;3.60;2.73;;;13.60;99.90;;;;;;5074200;28;20559;-57
2022/05/14 01:40:38;;;;;;;3.20;2.53;;;13.60;99.90;;;;;;5074206;28;20468;-57
2022/05/14 01:43:05;;;;;;;2.90;2.70;;;13.60;99.90;;;;;;5074358;28;20480;-56
2022/05/14 01:45:34;;;;;;;3.70;2.70;;;13.60;99.90;;;;;;5074429;28;20449;-56
2022/05/14 01:48:01;;;;;;;5.00;3.30;;;13.60;99.90;;;;;;5074324;28;20448;-56
2022/05/14 01:50:29;;;;;;;4.80;3.50;;;13.60;99.90;;;;;;5074386;28;20539;-56
2022/05/14 01:52:56;;;;;;;5.10;3.53;;;13.70;99.90;;;;;;5073968;28;20440;-57
2022/05/14 01:55:23;;;;;;;4.97;3.07;;;13.50;99.90;;;;;;5074242;28;20551;-57
2022/05/14 01:57:51;;;;;;;4.40;3.10;;;13.50;99.90;;;;;;5074494;28;20915;-57
2022/05/14 02:00:21;;;;;;;4.90;3.17;;;13.50;99.90;;;;;;5073880;28;20788;-57
2022/05/14 02:02:50;;;;;;;6.33;2.90;;;13.50;99.90;;;;;;5074290;28;20526;-56
2022/05/14 02:05:17;;;;;;;4.60;3.20;;;13.40;99.90;;;;;;5074927;28;20498;-56
2022/05/14 02:07:45;;;;;;;3.70;3.03;;;13.40;99.90;;;;;;5073971;28;20475;-56
2022/05/14 02:10:12;;;;;;;4.50;3.20;;;13.40;99.90;;;;;;5074587;28;20969;-56
2022/05/14 02:12:40;;;;;;;5.60;3.23;;;13.30;99.90;;;;;;5073699;28;20446;-57
2022/05/14 02:15:08;;;;;;;3.77;3.20;;;13.30;99.90;;;;;;5074494;28;20453;-56
2022/05/14 02:17:35;;;;;;;7.20;3.40;;;13.30;99.90;;;;;;5074165;28;20453;-56
2022/05/14 02:20:04;;;;;;;4.30;3.73;;;13.10;99.90;;;;;;5073774;28;20496;-56
2022/05/14 02:22:31;;;;;;;5.17;3.23;;;13.10;99.90;;;;;;5073864;28;20709;-56
2022/05/14 02:24:59;;;;;;;4.83;3.83;;;13.20;99.90;;;;;;5073921;28;20527;-55
2022/05/14 02:27:26;;;;;;;4.37;3.97;;;13.20;99.90;;;;;;5074084;28;20444;-57
2022/05/14 02:29:54;;;;;;;5.70;3.47;;;13.20;99.90;;;;;;5074755;28;20582;-56
2022/05/14 02:32:24;;;;;;;3.80;3.50;;;13.20;99.90;;;;;;5073645;28;20476;-56
2022/05/14 02:34:51;;;;;;;7.77;4.50;;;13.20;99.90;;;;;;5073263;28;20528;-56
2022/05/14 02:37:22;;;;;;;3.97;3.60;;;13.20;99.90;;;;;;5073876;28;20444;-57
2022/05/14 02:39:50;;;;;;;6.40;4.57;;;13.20;99.90;;;;;;5073812;28;20512;-56
2022/05/14 02:42:18;;;;;;;6.57;4.00;;;13.00;99.90;;;;;;5073570;28;20821;-56
2022/05/14 02:44:45;;;;;;;8.33;4.57;;;13.00;99.90;;;;;;5073600;28;20487;-57
2022/05/14 02:47:12;;;;;;;9.63;3.90;;;13.00;99.90;;;;;;5073367;28;20455;-56
2022/05/14 02:49:39;;;;;;;8.43;4.20;;;13.10;99.90;;;;;;5073501;28;20472;-56
2022/05/14 02:52:07;;;;;;;5.47;4.13;;;13.10;99.90;;;;;;5073200;28;20816;-56
2022/05/14 02:54:36;;;;;;;4.07;3.77;;;13.00;99.90;;;;;;5073612;28;21005;-57
2022/05/14 02:57:04;;;;;;;4.30;3.50;;;13.00;99.90;;;;;;5073225;28;20990;-56
2022/05/14 02:59:31;;;;;;;4.10;3.70;;;13.00;99.90;;;;;;5073461;28;20547;-56
2022/05/14 03:01:58;;;;;;;5.50;4.73;;;13.00;99.90;;;;;;5073582;28;20441;-56
2022/05/14 03:04:28;;;;;;;9.07;4.83;;;13.00;99.90;;;;;;5073262;28;20883;-56
2022/05/14 03:06:57;;;;;;;5.77;4.23;;;13.00;99.90;;;;;;5073664;28;20451;-56
2022/05/14 03:09:25;;;;;;;3.93;3.23;;;12.80;99.90;;;;;;5073062;28;20555;-57
2022/05/14 03:11:53;;;;;;;5.63;3.23;;;12.90;99.90;;;;;;5073140;28;20452;-56
2022/05/14 03:14:21;;;;;;;4.27;3.60;;;12.80;99.90;;;;;;5073591;28;20482;-56
2022/05/14 03:16:49;;;;;;;4.37;3.73;;;12.80;99.90;;;;;;5073107;28;20433;-56
2022/05/14 03:19:16;;;;;;;3.60;3.30;;;12.80;99.90;;;;;;5073326;28;20473;-57
2022/05/14 03:21:43;;;;;;;6.87;3.93;;;12.70;99.90;;;;;;5073003;28;20444;-57
2022/05/14 03:24:11;;;;;;;4.43;3.90;;;12.80;99.90;;;;;;5073011;28;20524;-56
2022/05/14 03:26:39;;;;;;;10.20;3.63;;;12.80;99.90;;;;;;5073049;28;20478;-56
2022/05/14 03:29:12;;;;;;;5.23;3.70;;;12.80;99.90;;;;;;5073251;28;20471;-56
2022/05/14 03:31:41;;;;;;;4.03;3.43;;;12.80;99.90;;;;;;5073272;28;20801;-57
2022/05/14 03:34:10;;;;;;;4.20;3.80;;;12.80;99.90;;;;;;5073342;28;20487;-56
2022/05/14 03:36:38;;;;;;;6.70;3.37;;;12.60;99.90;;;;;;5073186;28;20527;-56
2022/05/14 03:39:05;;;;;;;5.87;3.43;;;12.60;99.90;;;;;;5072869;28;20547;-56
2022/05/14 03:41:33;;;;;;;5.63;2.90;;;12.70;99.90;;;;;;5073207;28;20475;-57
2022/05/14 03:44:00;;;;;;;5.30;3.80;;;12.60;99.90;;;;;;5073125;28;20439;-56
2022/05/14 03:46:28;;;;;;;3.60;3.30;;;12.60;99.90;;;;;;5073056;28;20476;-56
2022/05/14 03:48:56;;;;;;;4.60;3.30;;;12.60;99.90;;;;;;5076049;28;20558;-56
2022/05/14 03:51:23;;;;;;;5.53;3.50;;;12.60;99.90;;;;;;5076663;28;20449;-57
2022/05/14 03:53:50;;;;;;;4.30;4.00;;;12.60;99.90;;;;;;5076597;28;20490;-57
2022/05/14 03:56:17;;;;;;;8.63;3.63;;;12.60;99.90;;;;;;5076372;28;20448;-57
2022/05/14 03:58:44;;;;;;;5.00;3.67;;;12.60;99.90;;;;;;5076409;28;20471;-55
2022/05/14 04:01:12;;;;;;;3.80;3.40;;;12.60;99.90;;;;;;5076198;28;20480;-56
2022/05/14 04:03:41;;;;;;;3.90;3.23;;;12.60;99.90;;;;;;5076453;28;20984;-56
2022/05/14 04:06:08;;;;;;;5.00;3.57;;;12.60;99.90;;;;;;5076101;28;20451;-56
2022/05/14 04:08:36;;;;;;;5.33;3.63;;;12.60;99.90;;;;;;5076514;28;20471;-56
2022/05/14 04:11:04;;;;;;;4.50;3.37;;;12.70;99.90;;;;;;5076318;28;20452;-56
2022/05/14 04:13:31;;;;;;;4.50;4.10;;;12.70;99.90;;;;;;5075971;28;20491;-56
2022/05/14 04:15:58;;;;;;;3.80;3.30;;;12.80;99.90;;;;;;5075871;28;20860;-56
2022/05/14 04:18:26;;;;;;;4.43;3.10;;;12.70;99.90;;;;;;5075759;28;21057;-56
2022/05/14 04:20:56;;;;;;;6.20;3.20;;;12.70;99.90;;;;;;5075858;28;20946;-56
2022/05/14 04:23:24;;;;;;;6.10;3.53;;;12.70;99.90;;;;;;5076090;28;20433;-56
2022/05/14 04:25:53;;;;;;;3.63;3.30;;;12.70;99.90;;;;;;5075752;28;20535;-56
2022/05/14 04:28:20;;;;;;;8.03;3.97;;;12.70;99.90;;;;;;5075628;28;20982;-56
2022/05/14 04:30:48;;;;;;;5.17;3.37;;;12.70;99.90;;;;;;5075648;28;20452;-55
2022/05/14 04:33:16;;;;;;;4.70;3.23;;;12.80;99.90;;;;;;5075983;28;20852;-57
2022/05/14 04:35:43;;;;;;;3.20;3.00;;;12.80;99.90;;;;;;5075503;28;20459;-56
2022/05/14 04:38:12;;;;;;;4.70;3.57;;;12.80;99.90;;;;;;5075437;28;20479;-56
2022/05/14 04:40:40;;;;;;;3.83;3.53;;;12.90;99.90;;;;;;5075342;28;20547;-57
2022/05/14 04:43:08;;;;;;;5.77;3.27;;;12.80;99.90;;;;;;5075722;28;20444;-56
2022/05/14 04:45:35;;;;;;;3.00;2.70;;;12.90;99.90;;;;;;5075351;28;20444;-57
2022/05/14 04:48:03;;;;;;;4.27;3.13;;;12.80;99.90;;;;;;5075600;28;20468;-56
2022/05/14 04:50:30;;;;;;;4.80;4.40;;;12.90;99.90;;;;;;5075267;28;20540;-56
2022/05/14 04:52:59;;;;;;;3.60;3.30;;;12.90;99.90;;;;;;5075236;28;20444;-56
2022/05/14 04:55:27;;;;;;;5.30;4.03;;;12.90;99.90;;;;;;5075116;28;20476;-57
2022/05/14 04:57:54;;;;;;;5.60;3.30;;;12.90;99.90;;;;;;5075328;28;20450;-57
2022/05/14 05:00:22;;;;;;;8.83;4.03;;;13.00;99.90;;;;;;5075395;28;20448;-57
2022/05/14 05:05:33;;;;;;;4.47;4.07;;;12.90;99.90;;;;;;5075104;28;20889;-57
2022/05/14 05:08:01;;;;;;;4.37;3.90;;;12.90;99.90;;;;;;5075172;28;20811;-56
2022/05/14 05:10:29;;;;;;;7.47;4.77;;;12.90;99.90;;;;;;5074890;28;20440;-57
2022/05/14 05:12:56;;;;;;;5.50;4.87;;;13.00;99.90;;;;;;5075080;28;20555;-56
2022/05/14 05:15:24;;;;;;;4.60;3.90;;;13.00;99.90;;;;;;5074672;28;20986;-56
2022/05/14 05:17:51;;;;;;;3.67;3.37;;;13.00;99.90;;;;;;5075061;28;20444;-56
2022/05/14 05:20:18;;;;;;;5.40;4.00;;;13.00;99.90;;;;;;5074629;28;20457;-57
2022/05/14 05:22:47;;;;;;;5.93;3.60;;;13.10;99.90;;;;;;5074591;28;20445;-56
2022/05/14 05:25:14;;;;;;;4.40;3.83;;;13.20;99.90;;;;;;5074456;28;20540;-56
2022/05/14 05:27:43;;;;;;;4.60;3.43;;;13.20;99.90;;;;;;5074703;28;20527;-56
2022/05/14 05:30:10;;;;;;;5.27;3.40;;;13.30;99.90;;;;;;5075282;28;20449;-56
2022/05/14 05:32:37;;;;;;;4.20;3.80;;;13.40;99.90;;;;;;5074658;28;20812;-57
2022/05/14 05:35:06;;;;;;;4.13;3.83;;;13.40;99.90;;;;;;5074526;28;20549;-56
2022/05/14 05:37:33;;;;;;;4.17;3.57;;;13.50;99.90;;;;;;5074420;28;20472;-56
2022/05/14 05:40:00;;;;;;;3.93;3.50;;;13.60;99.90;;;;;;5074000;28;20484;-56
2022/05/14 05:42:28;;;;;;;4.47;3.60;;;13.60;99.90;;;;;;5074516;28;20447;-57
2022/05/14 05:44:57;;;;;;;4.00;2.83;;;13.70;99.90;;;;;;5074348;28;20804;-57
2022/05/14 05:47:24;;;;;;;5.27;3.30;;;13.80;99.90;;;;;;5074364;28;20444;-57
2022/05/14 05:49:51;;;;;;;3.47;3.17;;;13.90;99.90;;;;;;5074243;28;20551;-57
2022/05/14 05:52:18;;;;;;;3.47;3.17;;;14.00;99.90;;;;;;5074272;28;20459;-57
2022/05/14 05:57:31;;;;;;;2.73;2.50;;;14.20;99.90;;;;;;5074231;28;20405;-57
2022/05/14 06:00:00;;;;;;;6.53;3.07;;;14.30;99.90;;;;;;5074313;28;20468;-57
2022/05/14 06:02:27;;;;;;;4.40;3.07;;;14.30;99.90;;;;;;5074229;28;20460;-55
2022/05/14 06:04:54;;;;;;;7.47;2.77;;;14.40;99.90;;;;;;5074268;28;20800;-56
2022/05/14 06:07:22;;;;;;;8.13;3.60;;;14.50;99.90;;;;;;5074303;28;20453;-56
2022/05/14 06:09:49;;;;;;;5.93;3.13;;;14.60;99.90;;;;;;5073791;28;20464;-57
2022/05/14 06:12:16;;;;;;;3.30;3.00;;;14.60;99.90;;;;;;5073923;28;20557;-56
2022/05/14 06:14:44;;;;;;;5.80;3.90;;;14.70;99.90;;;;;;5074177;28;20831;-56
2022/05/14 06:17:13;;;;;;;3.87;3.57;;;14.80;99.90;;;;;;5073664;28;20449;-57
2022/05/14 06:19:40;;;;;;;4.07;3.67;;;14.90;99.90;;;;;;5074154;28;20471;-57
2022/05/14 06:22:09;;;;;;;4.20;3.80;;;14.90;99.90;;;;;;5073924;28;20555;-56
2022/05/14 06:24:37;;;;;;;6.03;3.47;;;15.00;99.90;;;;;;5073835;28;20454;-57
2022/05/14 06:27:05;;;;;;;4.33;3.03;;;15.10;99.90;;;;;;5073695;28;20491;-57
2022/05/14 06:29:33;;;;;;;4.30;3.10;;;15.10;99.90;;;;;;5073907;28;20552;-56
2022/05/14 06:32:00;;;;;;;4.90;3.47;;;15.20;99.90;;;;;;5073395;28;20943;-56
2022/05/14 06:34:29;;;;;;;6.67;3.77;;;15.30;99.90;;;;;;5073715;28;20504;-57
2022/05/14 06:36:56;;;;;;;3.63;3.33;;;15.40;99.90;;;;;;5073523;28;20441;-57
2022/05/14 06:39:23;;;;;;;3.50;2.97;;;15.50;99.90;;;;;;5073399;28;20539;-56
2022/05/14 06:41:50;;;;;;;8.60;3.47;;;15.50;99.90;;;;;;5073547;28;20480;-57
2022/05/14 06:44:17;;;;;;;6.37;3.40;;;15.60;99.90;;;;;;5073651;28;20444;-57
2022/05/14 06:46:44;;;;;;;6.57;3.50;;;15.70;99.90;;;;;;5073406;28;20448;-58
2022/05/14 06:49:12;;;;;;;5.83;3.53;;;15.70;99.90;;;;;;5073859;28;20801;-57
2022/05/14 06:51:41;;;;;;;9.60;3.70;;;15.70;99.90;;;;;;5073668;28;20440;-57
2022/05/14 06:54:11;;;;;;;8.30;3.20;;;15.80;99.90;;;;;;5073079;28;20511;-57
2022/05/14 06:56:44;;;;;;;4.37;3.20;;;15.80;99.90;;;;;;5073110;28;20479;-57
2022/05/14 06:59:12;;;;;;;5.53;3.77;;;16.00;99.90;;;;;;5073442;28;20560;-57
2022/05/14 07:01:41;;;;;;;2.70;2.50;;;16.10;99.90;;;;;;5073528;28;20803;-57
2022/05/14 07:06:58;;;;;;;2.97;2.77;;;16.20;99.90;;;;;;5073820;28;20884;-57
2022/05/14 07:09:28;;;;;;;7.83;3.23;;;16.20;99.90;;;;;;5073027;28;20472;-57
2022/05/14 07:11:58;;;;;;;3.43;2.97;;;16.40;99.90;;;;;;5073018;28;20443;-57
2022/05/14 07:14:26;;;;;;;8.90;4.20;;;16.50;99.90;;;;;;5072979;28;20574;-56
2022/05/14 07:16:54;;;;;;;6.57;3.00;;;16.50;99.90;;;;;;5073054;28;20459;-57
2022/05/14 07:19:22;;;;;;;3.87;3.20;;;16.60;99.90;;;;;;5073131;28;20973;-57
2022/05/14 07:21:50;;;;;;;6.87;3.10;;;16.80;99.90;;;;;;5073196;28;20429;-56
2022/05/14 07:24:21;;;;;;;3.97;2.43;;;16.80;99.90;;;;;;5077113;28;20440;-57
2022/05/14 07:26:51;;;;;;;4.93;3.20;;;16.90;99.90;;;;;;5077910;28;20486;-57
2022/05/14 07:29:21;;;;;;;3.60;2.73;;;17.10;99.90;;;;;;5077544;28;20478;-57
2022/05/14 07:31:48;;;;;;;7.50;2.83;;;17.60;99.90;;;;;;5077244;28;20444;-57
2022/05/14 07:34:16;;;;;;;3.40;3.10;;;18.50;99.90;;;;;;5076873;28;20488;-57
2022/05/14 07:36:47;;;;;;;4.57;3.40;;;19.50;99.90;;;;;;5076612;28;20825;-57
2022/05/14 07:39:15;;;;;;;3.87;3.10;;;20.40;99.90;;;;;;5076492;28;20468;-57
2022/05/14 07:41:45;;;;;;;3.37;3.07;;;20.90;99.90;;;;;;5076422;28;20868;-57
2022/05/14 07:44:15;;;;;;;3.43;3.00;;;20.60;99.90;;;;;;5076549;28;20844;-57
2022/05/14 07:46:45;;;;;;;4.37;2.90;;;20.90;99.90;;;;;;5076824;28;20515;-57
2022/05/14 07:49:15;;;;;;;6.23;3.30;;;21.30;99.90;;;;;;5076534;28;20555;-56
2022/05/14 07:51:42;;;;;;;6.50;3.33;;;21.60;99.90;;;;;;5076324;28;20444;-57
2022/05/14 07:54:09;;;;;;;7.30;3.13;;;21.90;99.60;;;;;;5076456;28;20494;-57
2022/05/14 07:56:38;;;;;;;5.83;3.10;;;22.10;99.40;;;;;;5076521;28;20479;-57
2022/05/14 07:59:06;;;;;;;5.53;3.20;;;22.30;99.40;;;;;;5076467;28;20504;-56
2022/05/14 08:01:34;;;;;;;7.27;3.00;;;22.80;98.70;;;;;;5076498;28;20471;-57
2022/05/14 08:04:01;;;;;;;5.07;3.10;;;23.00;97.90;;;;;;5076028;28;20935;-57
2022/05/14 08:06:28;;;;;;;4.80;2.83;;;23.00;96.80;;;;;;5076555;28;20444;-57
2022/05/14 08:08:56;;;;;;;4.37;2.90;;;23.70;95.90;;;;;;5075973;28;20469;-57
2022/05/14 08:11:23;;;;;;;5.37;2.97;;;24.10;94.80;;;;;;5076054;28;20451;-57
2022/05/14 08:13:53;;;;;;;3.63;2.60;;;24.80;93.70;;;;;;5076009;28;20555;-58
2022/05/14 08:16:22;;;;;;;4.30;2.60;;;24.30;95.10;;;;;;5076232;28;20484;-58
2022/05/14 08:18:49;;;;;;;2.93;2.10;;;25.00;92.60;;;;;;5076041;28;20551;-58
2022/05/14 08:26:48;;;;;;;3.10;2.23;;;26.40;89.70;;;;;;5076160;28;20751;-58
2022/05/14 08:29:15;;;;;;;4.30;2.20;;;25.90;87.10;;;;;;5075719;28;20476;-57
2022/05/14 08:31:44;;;;;;;4.10;2.80;;;26.00;88.90;;;;;;5075797;28;20804;-58
2022/05/14 08:34:11;;;;;;;5.53;1.90;;;25.70;87.80;;;;;;5076068;28;20448;-58
2022/05/14 08:36:39;;;;;;;4.87;2.10;;;25.80;86.20;;;;;;5075393;28;20799;-58
2022/05/14 08:39:06;;;;;;;3.23;2.60;;;26.00;85.20;;;;;;5075101;28;20533;-58
2022/05/14 08:41:37;;;;;;;2.30;2.10;;;26.10;82.20;;;;;;5075938;28;20512;-58
2022/05/14 08:44:08;;;;;;;3.00;2.63;;;26.30;83.20;;;;;;5075532;28;20547;-58
2022/05/14 08:46:37;;;;;;;5.83;2.30;;;26.10;84.20;;;;;;5075650;28;20810;-57
2022/05/14 08:49:10;;;;;;;3.97;2.20;;;26.50;85.30;;;;;;5075446;28;20593;-57
2022/05/14 08:51:44;;;;;;;4.80;2.40;;;26.10;82.40;;;;;;5076324;28;20435;-57
2022/05/14 08:54:11;;;;;;;3.10;2.20;;;25.80;84.00;;;;;;5075270;28;20903;-57
2022/05/14 08:56:44;;;;;;;7.67;2.53;;;25.70;83.50;;;;;;5076111;28;20620;-57
2022/05/14 08:59:31;;;;;;;5.77;2.87;;;26.10;83.90;;;;;;5075297;28;20471;-57
2022/05/14 09:02:02;;;;;;;3.20;2.40;;;26.30;84.60;;;;;;5075719;28;20436;-57
2022/05/14 09:04:30;;;;;;;4.30;2.53;;;26.60;81.40;;;;;;5075268;28;20464;-57
2022/05/14 09:06:57;;;;;;;7.10;2.60;;;26.40;81.80;;;;;;5074876;28;20966;-57
2022/05/14 09:09:25;;;;;;;9.80;2.80;;;26.80;81.80;;;;;;5074723;28;20468;-57
2022/05/14 09:11:58;;;;;;;4.27;2.73;;;26.70;78.40;;;;;;5075007;28;20552;-57
2022/05/14 09:14:28;;;;;;;4.07;2.50;;;26.90;80.20;;;;;;5075102;28;20543;-57
2022/05/14 09:17:12;;;;;;;4.20;2.80;;;26.80;79.30;;;;;;5074818;28;20448;-58
2022/05/14 09:19:42;;;;;;;3.27;2.47;;;27.40;77.10;;;;;;5074957;28;20543;-58
2022/05/14 09:22:13;;;;;;;8.90;2.57;;;27.20;73.50;;;;;;5074712;28;20519;-58
2022/05/14 09:24:46;;;;;;;6.50;2.63;;;25.70;75.80;;;;;;5074842;28;20465;-58
2022/05/14 09:27:30;;;;;;;3.80;2.47;;;25.80;76.00;;;;;;5074725;28;20439;-58
2022/05/14 09:30:03;;;;;;;4.90;3.40;;;27.10;79.20;;;;;;5074428;28;20512;-58
2022/05/14 09:32:35;;;;;;;3.90;2.60;;;26.80;72.10;;;;;;5075626;28;20435;-58
2022/05/14 09:35:14;;;;;;;8.00;2.20;;;26.60;73.30;;;;;;5074501;28;20468;-58
2022/05/14 09:37:42;;;;;;;3.63;2.77;;;27.00;72.80;;;;;;5074557;28;20439;-58
2022/05/14 09:40:14;;;;;;;3.00;2.13;;;27.30;72.20;;;;;;5073990;28;21057;-57
2022/05/14 09:42:45;;;;;;;6.90;2.43;;;28.20;68.40;;;;;;5074412;28;20536;-58
2022/05/14 09:45:24;;;;;;;8.30;2.27;;;27.40;68.50;;;;;;5073612;28;20443;-58
2022/05/14 09:47:51;;;;;;;4.57;2.40;;;27.90;69.50;;;;;;5073956;28;20486;-57
2022/05/14 09:50:23;;;;;;;4.00;2.70;;;27.20;67.50;;;;;;5073996;28;20995;-58
2022/05/14 09:53:02;;;;;;;4.20;3.00;;;26.60;69.40;;;;;;5074043;28;20515;-58
2022/05/14 09:55:47;;;;;;;5.47;2.20;;;26.80;73.40;;;;;;5074185;28;20495;-57
2022/05/14 09:58:25;;;;;;;2.80;2.17;;;26.50;71.20;;;;;;5073876;28;20468;-57
2022/05/14 10:00:59;;;;;;;5.40;2.53;;;26.40;71.70;;;;;;5074229;28;20490;-58
2022/05/14 10:03:52;;;;;;;2.83;2.40;;;27.90;71.50;;;;;;5073826;28;20432;-57
2022/05/14 10:06:29;;;;;;;3.17;1.73;;;28.50;69.50;;;;;;5072064;28;20915;-58
2022/05/14 10:09:09;;;;;;;2.83;2.20;;;28.90;67.30;;;;;;5073668;28;20472;-58
2022/05/14 10:11:40;;;;;;;3.03;2.50;;;29.10;68.20;;;;;;5073727;28;20435;-58
2022/05/14 10:14:21;;;;;;;2.40;2.20;;;29.20;67.60;;;;;;5074115;28;20466;-58
2022/05/14 10:16:55;;;;;;;5.80;2.60;;;;;;;;;;5073978;28;20477;-57
2022/05/14 10:19:39;;;;;;;2.10;1.90;;;29.50;64.50;;;;;;5074677;28;20467;-58
2022/05/14 10:22:18;;;;;;;4.30;2.50;;;29.20;64.50;;;;;;5073569;28;20464;-58
2022/05/14 10:27:57;;;;;;;3.17;2.40;;;29.20;61.90;;;;;;5074166;28;20404;-58
2022/05/14 10:30:29;;;;;;;3.50;2.10;;;29.10;61.80;;;;;;5074054;28;20917;-58
2022/05/14 10:33:01;;;;;;;3.97;2.60;;;28.70;63.00;;;;;;5073668;28;20498;-58
2022/05/14 10:35:34;;;;;;;2.37;1.90;;;27.90;60.80;;;;;;5073690;28;20886;-58
2022/05/14 10:38:07;;;;;;;3.43;2.17;;;27.60;62.20;;;;;;5073724;28;20788;-58
2022/05/14 10:40:39;;;;;;;3.03;2.00;;;27.50;63.10;;;;;;5072362;28;20476;-59
2022/05/14 10:43:29;;;;;;;4.33;2.60;;;28.50;67.70;;;;;;5073316;28;20543;-58
2022/05/14 10:45:58;;;;;;;2.93;2.00;;;28.70;62.00;;;;;;5074210;28;20485;-58
2022/05/14 10:48:37;;;;;;;3.40;2.20;;;29.10;59.80;;;;;;5073526;28;20523;-58
2022/05/14 10:51:07;;;;;;;5.87;2.23;;;29.00;62.30;;;;;;5073275;28;20443;-58
2022/05/14 10:53:38;;;;;;;5.43;2.23;;;28.70;59.50;;;;;;5073325;28;20452;-59
2022/05/14 10:56:10;;;;;;;5.20;2.03;;;29.20;60.70;;;;;;5073791;28;20472;-58
2022/05/14 10:58:45;;;;;;;5.00;2.30;;;29.30;60.90;;;;;;5077268;28;20500;-58
2022/05/14 11:01:28;;;;;;;2.17;1.93;;;28.60;60.60;;;;;;5077316;28;20432;-58
2022/05/14 11:03:57;;;;;;;4.63;2.00;;;28.50;60.50;;;;;;5077556;28;20436;-58
2022/05/14 11:06:31;;;;;;;4.13;2.00;;;28.80;61.50;;;;;;5077522;28;20437;-58
2022/05/14 11:09:00;;;;;;;3.73;2.23;;;29.00;60.70;;;;;;5077932;28;20467;-58
2022/05/14 11:11:30;;;;;;;4.60;1.90;;;29.50;60.10;;;;;;5077457;28;20448;-58
2022/05/14 11:14:02;;;;;;;3.10;2.00;;;29.40;58.40;;;;;;5077353;28;20455;-58
2022/05/14 11:16:43;;;;;;;3.57;2.07;;;29.20;59.40;;;;;;5077429;28;20501;-57
2022/05/14 11:19:12;;;;;;;4.07;2.00;;;29.30;58.30;;;;;;5077283;28;20468;-58
2022/05/14 11:21:43;;;;;;;4.17;2.00;;;29.30;59.70;;;;;;5077165;28;20472;-58
2022/05/14 11:24:15;;;;;;;5.10;2.10;;;28.90;58.50;;;;;;5077164;28;20409;-58
2022/05/14 11:26:51;;;;;;;8.13;1.97;;;29.10;59.90;;;;;;5077374;28;20409;-58
2022/05/14 11:29:22;;;;;;;2.30;1.80;;;29.00;57.90;;;;;;5077018;28;20605;-57
2022/05/14 11:31:53;;;;;;;4.50;1.90;;;29.50;58.30;;;;;;5076955;28;20451;-58
2022/05/14 11:34:23;;;;;;;6.70;2.33;;;30.00;57.00;;;;;;5077298;28;20433;-58
2022/05/14 11:36:54;;;;;;;2.90;1.50;;;29.10;56.50;;;;;;5076962;28;20484;-58
2022/05/14 11:39:32;;;;;;;7.83;2.13;;;29.30;56.30;;;;;;5076770;28;20476;-58
2022/05/14 11:42:31;;;;;;;3.23;2.50;;;28.90;57.50;;;;;;5077121;28;20498;-58
2022/05/14 11:45:04;;;;;;;4.40;2.00;;;28.00;57.10;;;;;;5043299;28;20471;-58
2022/05/14 11:47:55;;;;;;;3.13;2.10;;;28.70;57.10;;;;;;5076538;28;20427;-58
2022/05/14 11:50:28;;;;;;;2.03;1.80;;;28.80;58.30;;;;;;5076742;28;20473;-58
2022/05/14 11:53:09;;;;;;;2.57;1.90;;;29.40;58.00;;;;;;5076586;28;20792;-58
2022/05/14 11:55:43;;;;;;;2.40;1.70;;;30.20;56.80;;;;;;5076515;28;20477;-58
2022/05/14 11:58:16;;;;;;;4.17;1.80;;;30.40;56.40;;;;;;5076259;28;20976;-58
2022/05/14 12:00:45;;;;;;;3.80;2.30;;;29.10;56.10;;;;;;5076576;28;20953;-58
2022/05/14 12:03:17;;;;;;;4.77;2.23;;;29.10;56.20;;;;;;5076102;28;20501;-58
2022/05/14 12:05:49;;;;;;;3.87;2.17;;;29.60;55.60;;;;;;5076155;28;20432;-59
2022/05/14 12:08:38;;;;;;;3.57;2.00;;;29.00;55.00;;;;;;5075322;28;20982;-58
2022/05/14 12:11:21;;;;;;;4.50;2.00;;;28.50;56.70;;;;;;5075991;28;20439;-58
2022/05/14 12:13:55;;;;;;;2.43;1.90;;;29.50;57.40;;;;;;5076321;28;20452;-58
2022/05/14 12:16:29;;;;;;;3.17;2.23;;;29.30;56.30;;;;;;5076162;28;20476;-58
2022/05/14 12:18:56;;;;;;;2.80;1.80;;;29.40;56.40;;;;;;5075994;28;20453;-58
2022/05/14 12:21:25;;;;;;;3.90;2.07;;;29.70;55.70;;;;;;5076090;28;20455;-58
2022/05/14 12:23:52;;;;;;;3.13;2.40;;;29.80;55.70;;;;;;5076014;28;20444;-58
2022/05/14 12:26:24;;;;;;;3.50;1.60;;;29.30;55.60;;;;;;5075689;28;20980;-57
2022/05/14 12:28:54;;;;;;;2.83;2.00;;;29.80;54.60;;;;;;5075926;28;20539;-58
2022/05/14 12:34:11;;;;;;;3.70;2.00;;;28.00;55.30;;;;;;5075860;28;20486;-58
2022/05/14 12:36:42;;;;;;;5.37;1.97;;;28.00;54.70;;;;;;5075356;28;20484;-58
2022/05/14 12:39:14;;;;;;;10.80;2.00;;;28.30;55.70;;;;;;5075506;28;20522;-57
2022/05/14 12:41:45;;;;;;;5.53;1.73;;;28.50;55.90;;;;;;5075963;28;20437;-57
2022/05/14 12:44:16;;;;;;;5.37;2.00;;;28.80;54.50;;;;;;5075589;28;20938;-57
2022/05/14 12:46:46;;;;;;;3.50;1.90;;;28.40;55.10;;;;;;5076061;28;20440;-57
2022/05/14 12:49:20;;;;;;;3.53;1.90;;;28.20;54.70;;;;;;5075678;28;20642;-57
2022/05/14 12:51:50;;;;;;;2.03;1.57;;;28.50;54.70;;;;;;5075522;28;20508;-57
2022/05/14 12:54:24;;;;;;;1.90;1.63;;;28.70;54.30;;;;;;5075509;28;20429;-58
2022/05/14 12:56:54;;;;;;;2.20;1.63;;;28.90;54.90;;;;;;5075325;28;20866;-58
2022/05/14 12:59:22;;;;;;;6.97;2.13;;;28.40;54.70;;;;;;5075268;28;20986;-58
2022/05/14 13:01:51;;;;;;;2.07;1.80;;;28.60;54.60;;;;;;5075480;28;20448;-57
2022/05/14 13:04:22;;;;;;;2.60;1.90;;;28.40;54.30;;;;;;5075215;28;20448;-57
2022/05/14 13:06:49;;;;;;;5.10;2.30;;;28.40;54.30;;;;;;5074850;28;20425;-57
2022/05/14 13:09:23;;;;;;;5.63;2.10;;;28.40;54.80;;;;;;5074828;28;20503;-57
2022/05/14 13:11:54;;;;;;;3.90;1.90;;;28.40;55.30;;;;;;5075962;28;20432;-57
2022/05/14 13:14:24;;;;;;;3.70;1.93;;;28.40;54.20;;;;;;5075143;28;20810;-58
2022/05/14 13:16:56;;;;;;;5.37;2.50;;;28.50;54.70;;;;;;5074657;28;20555;-58
2022/05/14 13:19:35;;;;;;;3.53;2.00;;;28.80;54.90;;;;;;5073951;28;20496;-58
2022/05/14 13:22:03;;;;;;;5.00;1.77;;;28.20;53.50;;;;;;5074891;28;20437;-58
2022/05/14 13:24:32;;;;;;;2.93;1.60;;;28.60;54.30;;;;;;5074875;28;20531;-58